• Join FlightAware (Why Join?)
  • Login
  • US Flag 
09:00PM EDT


 

Airport Tracker/Info


-or-


 

Live Flight TrackerFlight Track Log ✈ UCA3597 ✈ 04-May-2014 ✈ KIAD - KBGM

Flight Track Log - Related Links

Times and Time Zones

All times are in EDT time to prevent confusion due to time zone crossing. See the UCA3597 flight status page for this flight to view local times or setup timezone preferences in your user account.

Time Position Orientation Groundspeed Altitude Reporting Facility
EDT Latitude Longitude Course Direction KTS MPH feet Rate Location/Type
05:45PM 39.3182 -77.2991 19° North  Level Estimated
05:46PM 39.3800 -77.2722 19° North  Level Estimated
05:47PM 39.4417 -77.2451 19° North  Level Estimated
05:48PM 39.5035 -77.2181 19° North  Level Estimated
05:49PM 39.5652 -77.1910 19° North  Level Estimated
05:50PM 39.6270 -77.1638 19° North  Level Estimated
05:51PM 39.6887 -77.1366 19° North  Level Estimated
05:52PM 39.7505 -77.1093 19° North  Level Estimated
05:53PM 39.8122 -77.0820 19° North  Level Estimated
05:54PM 39.8739 -77.0547 19° North  Level Estimated
05:55PM 39.9356 -77.0273 19° North  Level Estimated
05:56PM 39.9973 -76.9998 19° North  Level Estimated
05:57PM 40.0590 -76.9723 19° North  Level Estimated
05:58PM 40.1207 -76.9448 19° North  Level Estimated
05:59PM 40.1824 -76.9172 19° North  Level Estimated
06:00PM 40.2441 -76.8895 19° North  Level Estimated
06:01PM 40.3058 -76.8618 19° North  Level Estimated
06:02PM 40.3674 -76.8340 19° North  Level Estimated
06:03PM 40.4291 -76.8062 19° North  Level Estimated
06:04PM 40.4907 -76.7784 19° North  Level Estimated
06:05PM 40.5524 -76.7505 19° North  Level Estimated
06:06PM 40.6140 -76.7225 19° North  Level Estimated
06:07PM 40.6757 -76.6945 19° North  Level Estimated
06:08PM 40.7373 -76.6664 19° North  Level Estimated
06:09PM 40.7989 -76.6383 19° North  Level Estimated
06:10PM 40.8605 -76.6102 19° North  Level Estimated
06:11PM 40.9221 -76.5819 19° North  Level Estimated
06:12PM 40.9837 -76.5537 19° North  Level Estimated
06:13PM 41.0453 -76.5253 19° North  Level Estimated
06:14PM 41.1069 -76.4970 19° North  Level Estimated
06:15PM 41.1685 -76.4685 19° North  Level Estimated
06:16PM 41.2301 -76.4400 19° North  Level Estimated
06:17PM 41.2916 -76.4115 19° North  Level Estimated
06:18PM 41.3532 -76.3829 19° North  Level Estimated
06:19PM 41.4147 -76.3543 19° North  Level Estimated
06:20PM 41.4763 -76.3256 19° North  Level Estimated
06:21PM 41.5378 -76.2968 19° North  Level Estimated
06:22PM 41.5994 -76.2680 19° North  Level Estimated
06:23PM 41.6609 -76.2391 19° North  Level Estimated
06:24PM 41.7224 -76.2102 19° North  Level Estimated
06:25PM 41.7839 -76.1812 19° North  Level Estimated
06:26PM 41.8454 -76.1522 19° North  Level Estimated
06:27PM 41.9069 -76.1231 19° North  Level Estimated
06:28PM 41.9684 -76.0940 19° North  Level Estimated
06:29PM 42.0299 -76.0648 19° North  Level Estimated
06:30PM 42.0913 -76.0355 19° North  Level Estimated
06:31PM 42.1528 -76.0062 19° North  Level Estimated
06:32PM 42.2084 -75.9796 19° North  Level Estimated
06:33PM 42.2084 -75.9796 North  Level Estimated
06:34PM 42.2084 -75.9796 North  Level Estimated
06:35PM 42.2084 -75.9796 North  Level Estimated
06:36PM 42.2084 -75.9796 North  Level Estimated
06:37PM 42.2084 -75.9796 North  Level Estimated
06:38PM 42.2084 -75.9796 North  Level Estimated
06:39PM 42.2084 -75.9796 North  Level Estimated
06:40PM 42.2084 -75.9796 North  Level Estimated
06:41PM 42.2084 -75.9796 North  Level Estimated
06:42PM 42.2084 -75.9796 North  Level Estimated
06:43PM 42.2084 -75.9796 North  Level Estimated
06:44PM 42.2084 -75.9796 North  Level Estimated
06:45PM 42.2084 -75.9796 North  Level Estimated